Time;durP1;ratioP1;P1;durP2;ratioP2;P2;SDS_P1;SDS_P2;PMS_P1;PMS_P2;Temp;Humidity;BMP_temperature;BMP_pressure;BME280_temperature;BME280_humidity;BME280_pressure;Samples;Min_cycle;Max_cycle;Signal;HPM_P1;HPM_P2
2023/03/23 04:45:45;;;;;;;20.92;11.63;;;;;;;4.66;100.00;100309.47;5798211;28;20306;-86
2023/03/23 04:48:48;;;;;;;24.45;11.68;;;;;;;4.69;100.00;100309.19;5260899;33;33660;-84
2023/03/23 04:51:51;;;;;;;22.65;12.77;;;;;;;4.69;100.00;100311.87;5269177;33;33506;-84
2023/03/23 04:54:57;;;;;;;25.92;12.65;;;;;;;4.71;100.00;100309.91;5244072;33;33575;-85
2023/03/23 04:58:01;;;;;;;27.08;12.40;;;;;;;4.73;100.00;100313.25;5249133;33;33674;-84
2023/03/23 05:01:04;;;;;;;26.87;13.00;;;;;;;4.77;100.00;100316.50;5271991;33;33564;-84
2023/03/23 05:04:07;;;;;;;25.73;12.02;;;;;;;4.80;100.00;100312.69;5245575;33;34006;-85
2023/03/23 05:07:11;;;;;;;25.88;12.23;;;;;;;4.85;100.00;100313.94;5261385;33;34392;-85
2023/03/23 05:10:15;;;;;;;25.17;12.15;;;;;;;4.85;100.00;100311.28;5289050;33;33041;-84
2023/03/23 05:13:17;;;;;;;24.58;12.18;;;;;;;4.88;100.00;100313.66;5289025;33;33916;-84
2023/03/23 05:16:20;;;;;;;24.95;11.23;;;;;;;4.98;100.00;100322.50;5289518;33;34263;-84
2023/03/23 05:19:23;;;;;;;28.95;12.88;;;;;;;5.03;100.00;100322.09;5276479;33;34363;-84
2023/03/23 05:22:27;;;;;;;20.55;11.43;;;;;;;5.19;100.00;100324.97;5276284;33;34528;-84
2023/03/23 05:25:30;;;;;;;25.00;12.32;;;;;;;5.49;100.00;100322.22;5289360;33;34098;-84
2023/03/23 05:28:32;;;;;;;23.08;12.43;;;;;;;5.51;100.00;100322.91;5283831;33;33584;-84
2023/03/23 05:31:34;;;;;;;24.10;12.93;;;;;;;5.57;100.00;100314.31;5270959;33;33519;-84
2023/03/23 05:34:36;;;;;;;21.20;11.30;;;;;;;5.68;100.00;100319.47;5263425;33;34042;-84
2023/03/23 05:37:38;;;;;;;23.85;12.90;;;;;;;5.83;100.00;100314.47;5283652;33;34001;-84
2023/03/23 05:40:43;;;;;;;22.90;12.57;;;;;;;5.94;100.00;100308.97;5259442;33;33239;-84
2023/03/23 05:43:46;;;;;;;26.77;13.98;;;;;;;6.11;100.00;100313.50;5254530;33;33825;-83
2023/03/23 05:46:48;;;;;;;30.75;13.45;;;;;;;6.25;100.00;100304.09;5242227;33;33985;-83
2023/03/23 05:49:51;;;;;;;29.92;14.65;;;;;;;6.44;100.00;100300.47;5271451;33;33852;-83
2023/03/23 05:52:54;;;;;;;32.75;15.68;;;;;;;6.66;100.00;100292.94;5272137;33;34297;-84
2023/03/23 05:56:00;;;;;;;28.48;16.50;;;;;;;6.95;100.00;100290.84;5285107;33;33783;-84
2023/03/23 05:59:02;;;;;;;30.73;15.82;;;;;;;7.24;100.00;100297.72;5281327;33;34556;-83
2023/03/23 06:02:05;;;;;;;28.15;15.63;;;;;;;7.56;100.00;100302.41;5255873;33;34339;-83
2023/03/23 06:05:07;;;;;;;29.25;16.77;;;;;;;7.81;100.00;100298.00;5271926;33;34394;-84
2023/03/23 06:08:11;;;;;;;25.92;15.18;;;;;;;8.12;100.00;100297.41;5249236;33;34430;-84
2023/03/23 06:11:13;;;;;;;30.92;15.30;;;;;;;8.42;100.00;100298.66;5259828;33;33673;-84
2023/03/23 06:14:17;;;;;;;24.40;14.23;;;;;;;8.63;100.00;100300.91;5258949;33;34006;-83
2023/03/23 06:17:20;;;;;;;23.02;12.57;;;;;;;8.91;97.75;100309.44;5273241;33;33617;-88
2023/03/23 06:20:24;;;;;;;22.27;12.02;;;;;;;9.17;92.59;100309.22;5247500;33;33399;-88
2023/03/23 06:23:26;;;;;;;25.45;12.32;;;;;;;9.31;91.85;100308.53;5260078;33;34452;-88
2023/03/23 06:26:41;;;;;;;20.58;11.48;;;;;;;9.53;90.88;100309.66;5249482;33;34682;-87
2023/03/23 06:29:43;;;;;;;21.67;10.80;;;;;;;9.84;88.59;100305.34;5273120;33;33404;-84
2023/03/23 06:32:47;;;;;;;20.60;11.77;;;;;;;10.05;86.25;100307.44;5255340;33;33565;-84
2023/03/23 06:35:49;;;;;;;20.37;9.75;;;;;;;10.37;84.13;100301.87;5272845;33;33051;-84
2023/03/23 06:38:51;;;;;;;18.95;10.65;;;;;;;10.41;84.11;100297.84;5244200;33;33475;-84
2023/03/23 06:41:56;;;;;;;17.70;10.10;;;;;;;10.66;81.54;100303.03;5259944;33;33461;-84
2023/03/23 06:45:00;;;;;;;14.87;9.23;;;;;;;10.72;80.94;100301.47;5259916;33;33897;-84
2023/03/23 06:48:02;;;;;;;17.58;9.15;;;;;;;10.73;79.19;100295.06;5272729;33;33500;-84
2023/03/23 06:51:04;;;;;;;17.75;9.77;;;;;;;10.93;78.64;100301.63;5248094;33;34150;-83
2023/03/23 06:54:07;;;;;;;16.58;9.05;;;;;;;10.91;76.97;100317.16;5260200;33;33418;-84
2023/03/23 06:57:10;;;;;;;14.90;9.73;;;;;;;10.93;77.66;100309.69;5248778;33;33688;-84
2023/03/23 07:00:13;;;;;;;17.70;10.15;;;;;;;10.98;77.66;100315.37;5248333;33;33542;-84
2023/03/23 07:03:15;;;;;;;19.83;9.73;;;;;;;11.01;76.50;100312.31;5272661;33;34299;-84
2023/03/23 07:06:19;;;;;;;18.10;10.60;;;;;;;11.31;75.34;100309.69;5235601;33;33450;-84
2023/03/23 07:09:22;;;;;;;18.75;10.05;;;;;;;11.46;75.00;100315.06;5252362;33;34458;-84
2023/03/23 07:12:24;;;;;;;20.27;11.38;;;;;;;11.73;74.04;100313.62;5271504;33;33479;-84
2023/03/23 07:15:26;;;;;;;16.95;9.70;;;;;;;11.87;73.22;100315.47;5258701;33;34679;-84
2023/03/23 07:18:30;;;;;;;19.37;10.57;;;;;;;12.16;72.27;100313.75;5266038;33;34050;-84
2023/03/23 07:21:32;;;;;;;16.95;10.13;;;;;;;11.93;72.11;100314.72;5253875;33;33680;-84
2023/03/23 07:24:35;;;;;;;17.90;10.50;;;;;;;11.80;73.24;100315.34;5254930;33;33615;-84
2023/03/23 07:27:37;;;;;;;20.10;10.35;;;;;;;12.17;72.72;100328.94;5274331;33;34513;-84
2023/03/23 07:30:41;;;;;;;20.27;10.68;;;;;;;12.53;71.03;100330.78;5242974;33;33339;-84
2023/03/23 07:33:45;;;;;;;19.12;10.45;;;;;;;12.31;71.30;100322.63;5272637;33;33590;-84
2023/03/23 07:36:47;;;;;;;19.02;10.57;;;;;;;12.29;71.78;100326.56;5255616;33;33745;-84
2023/03/23 07:39:49;;;;;;;18.42;10.27;;;;;;;12.60;69.87;100329.81;5264661;33;32761;-84
2023/03/23 07:42:54;;;;;;;17.25;10.93;;;;;;;12.64;69.85;100325.72;5256004;33;32156;-84
2023/03/23 07:45:58;;;;;;;21.37;10.65;;;;;;;13.00;69.71;100332.88;5247747;33;33111;-84
2023/03/23 07:49:04;;;;;;;16.62;10.13;;;;;;;13.18;67.14;100339.69;5256295;33;33237;-84
2023/03/23 07:52:07;;;;;;;17.98;11.32;;;;;;;13.28;66.83;100340.19;5256671;33;33406;-84
2023/03/23 07:55:17;;;;;;;19.80;11.68;;;;;;;13.33;66.30;100349.41;5256585;33;33070;-84
2023/03/23 07:58:20;;;;;;;21.00;11.20;;;;;;;13.45;66.74;100336.16;5271923;33;33679;-84
2023/03/23 08:01:25;;;;;;;18.33;11.02;;;;;;;13.43;66.09;100338.25;5235878;33;33614;-85
2023/03/23 08:04:29;;;;;;;20.75;12.15;;;;;;;13.50;66.16;100341.81;5272464;33;33934;-85
2023/03/23 08:07:31;;;;;;;18.70;10.57;;;;;;;13.75;65.33;100347.62;5254412;33;33579;-84
2023/03/23 08:10:35;;;;;;;20.33;11.68;;;;;;;13.85;64.66;100344.53;5271944;33;33226;-86
2023/03/23 08:13:37;;;;;;;21.77;11.60;;;;;;;13.94;65.23;100340.62;5272565;33;34036;-84
2023/03/23 08:16:39;;;;;;;18.98;11.52;;;;;;;13.97;63.76;100350.22;5259696;33;33512;-84
2023/03/23 08:19:42;;;;;;;16.33;10.70;;;;;;;13.80;64.55;100337.00;5250123;33;33443;-86
2023/03/23 08:22:52;;;;;;;19.85;11.23;;;;;;;14.01;63.92;100337.94;5258179;33;33737;-84
2023/03/23 08:25:57;;;;;;;18.48;10.20;;;;;;;14.35;62.52;100349.75;5236050;33;32487;-89
2023/03/23 08:28:59;;;;;;;18.25;10.93;;;;;;;14.59;62.09;100345.69;5265167;33;34907;-88
2023/03/23 08:32:06;;;;;;;18.52;10.90;;;;;;;14.91;59.72;100342.19;5265267;33;33758;-87
2023/03/23 08:35:11;;;;;;;16.17;9.80;;;;;;;14.86;59.84;100343.84;5275381;33;34898;-86
2023/03/23 08:38:13;;;;;;;19.27;10.73;;;;;;;14.93;58.84;100340.09;5265270;33;33512;-85
2023/03/23 08:41:15;;;;;;;18.23;10.60;;;;;;;15.41;57.56;100337.19;5257538;33;33500;-85
2023/03/23 08:44:17;;;;;;;19.10;10.40;;;;;;;15.53;57.16;100331.97;5267076;33;33373;-85
2023/03/23 08:47:19;;;;;;;16.50;10.13;;;;;;;15.79;55.10;100339.22;5250744;33;34413;-86
2023/03/23 08:50:27;;;;;;;16.37;9.73;;;;;;;15.95;52.92;100343.38;5275353;33;33154;-86
2023/03/23 08:53:31;;;;;;;19.08;10.35;;;;;;;16.10;51.74;100341.22;5276446;33;34041;-85
2023/03/23 08:56:32;;;;;;;14.60;9.75;;;;;;;16.16;52.37;100330.53;5265986;33;33894;-85
2023/03/23 08:59:35;;;;;;;13.25;8.88;;;;;;;16.29;50.61;100330.47;5272661;33;33214;-85
2023/03/23 09:02:37;;;;;;;16.50;8.68;;;;;;;16.32;49.88;100330.88;5259071;33;33071;-86
2023/03/23 09:05:45;;;;;;;13.43;8.50;;;;;;;16.31;49.43;100325.66;5247683;33;34170;-86
2023/03/23 09:08:49;;;;;;;13.57;8.40;;;;;;;16.31;49.19;100331.91;5259177;33;33308;-85
2023/03/23 09:11:53;;;;;;;12.88;8.43;;;;;;;16.28;48.95;100324.19;5246021;33;33721;-86
2023/03/23 09:14:55;;;;;;;16.73;8.68;;;;;;;16.46;49.57;100319.94;5250689;33;34282;-86
2023/03/23 09:17:57;;;;;;;12.40;8.38;;;;;;;16.75;49.29;100321.22;5255036;33;32244;-86
2023/03/23 09:20:59;;;;;;;16.87;8.30;;;;;;;16.70;48.93;100329.19;5255996;33;33546;-86
2023/03/23 09:24:01;;;;;;;11.82;8.15;;;;;;;16.72;48.74;100325.19;5271918;33;34457;-85
2023/03/23 09:27:04;;;;;;;14.57;8.25;;;;;;;16.87;48.88;100324.91;5254648;33;33494;-85
2023/03/23 09:30:10;;;;;;;13.80;8.77;;;;;;;16.98;48.34;100313.31;5271518;33;33606;-85
2023/03/23 09:33:13;;;;;;;14.05;8.32;;;;;;;17.08;48.19;100312.00;5257151;33;33635;-85
2023/03/23 09:36:17;;;;;;;14.50;8.32;;;;;;;17.22;47.17;100308.94;5257424;33;33564;-85
2023/03/23 09:39:19;;;;;;;19.92;8.32;;;;;;;17.38;47.97;100310.25;5231568;33;33986;-85
2023/03/23 09:42:33;;;;;;;15.77;9.02;;;;;;;17.81;47.36;100304.00;5267861;33;34026;-85
2023/03/23 09:45:38;;;;;;;14.90;8.32;;;;;;;18.22;45.73;100307.87;5270802;33;34352;-85
2023/03/23 09:48:56;;;;;;;16.75;8.98;;;;;;;18.48;44.27;100309.38;5271197;33;34109;-85
2023/03/23 09:52:02;;;;;;;13.43;8.10;;;;;;;18.69;44.49;100304.47;5258014;33;33484;-85
2023/03/23 09:55:05;;;;;;;15.50;8.60;;;;;;;18.84;43.81;100299.47;5271122;33;34488;-85
2023/03/23 09:58:46;;;;;;;15.43;8.35;;;;;;;19.08;42.73;100296.78;5257698;33;33171;-85
2023/03/23 10:01:52;;;;;;;18.15;8.40;;;;;;;19.15;42.60;100286.56;5270939;33;33501;-85
2023/03/23 10:04:56;;;;;;;14.23;8.25;;;;;;;18.80;43.77;100287.34;5271005;33;34298;-85
2023/03/23 10:08:00;;;;;;;13.85;8.30;;;;;;;19.32;42.75;100289.41;5270867;33;34254;-85
2023/03/23 10:11:19;;;;;;;13.40;7.72;;;;;;;19.73;42.21;100287.63;5257830;33;33429;-85
2023/03/23 10:14:28;;;;;;;16.48;8.40;;;;;;;19.95;42.02;100280.44;5270825;33;31872;-85
2023/03/23 10:17:50;;;;;;;15.52;8.13;;;;;;;20.01;40.71;100284.94;5269124;33;34289;-85
2023/03/23 10:20:58;;;;;;;15.82;7.62;;;;;;;20.00;41.28;100271.50;5264501;33;34264;-85
2023/03/23 10:24:03;;;;;;;12.98;7.25;;;;;;;19.81;40.92;100259.94;5272912;33;33429;-85
2023/03/23 10:27:31;;;;;;;15.20;7.97;;;;;;;19.47;41.43;100266.00;5248663;33;34428;-85
2023/03/23 10:30:37;;;;;;;13.48;7.87;;;;;;;19.66;41.58;100255.00;5269253;33;34073;-85
2023/03/23 10:33:42;;;;;;;14.85;7.10;;;;;;;19.57;41.28;100239.97;5271610;33;33587;-85
2023/03/23 10:37:11;;;;;;;10.80;6.62;;;;;;;19.63;41.94;100249.97;5269930;33;33872;-85
2023/03/23 10:40:27;;;;;;;11.25;7.40;;;;;;;19.72;41.29;100247.72;5269418;33;33937;-85
2023/03/23 10:43:29;;;;;;;13.98;7.32;;;;;;;19.60;41.34;100247.72;5268830;33;33458;-89
2023/03/23 10:46:48;;;;;;;15.23;8.23;;;;;;;19.52;42.42;100248.91;5236754;33;34251;-90
2023/03/23 10:49:55;;;;;;;19.37;9.48;;;;;;;19.71;42.23;100244.16;5254041;33;33845;-86
2023/03/23 10:52:59;;;;;;;15.88;8.57;;;;;;;19.92;41.67;100231.75;5271722;33;33937;-86
2023/03/23 10:56:02;;;;;;;15.75;9.05;;;;;;;19.68;41.50;100234.53;5272638;33;34126;-85
2023/03/23 10:59:28;;;;;;;11.43;7.25;;;;;;;19.79;41.63;100234.75;5254868;33;34264;-85
2023/03/23 11:02:30;;;;;;;12.73;6.97;;;;;;;20.05;40.45;100241.56;5267671;33;33979;-85
2023/03/23 11:05:39;;;;;;;10.05;6.00;;;;;;;20.42;40.10;100236.53;5247852;33;33869;-85
2023/03/23 11:09:03;;;;;;;10.70;6.03;;;;;;;20.35;40.15;100236.66;5272088;33;33601;-85
2023/03/23 11:12:17;;;;;;;12.07;6.62;;;;;;;20.55;40.15;100236.22;5272360;33;33185;-85
2023/03/23 11:15:27;;;;;;;9.43;6.00;;;;;;;20.20;40.64;100227.34;5258083;33;33572;-85
2023/03/23 11:18:42;;;;;;;14.07;6.28;;;;;;;20.36;40.19;100221.94;5272323;33;33539;-85
2023/03/23 11:21:59;;;;;;;7.68;5.25;;;;;;;20.83;38.59;100220.81;5266303;33;33551;-85
2023/03/23 11:25:04;;;;;;;6.75;4.60;;;;;;;21.40;37.66;100206.06;5264367;33;33249;-85
2023/03/23 11:28:08;;;;;;;5.95;4.07;;;;;;;21.65;36.17;100198.19;5287358;33;33783;-85
2023/03/23 11:31:11;;;;;;;7.15;3.90;;;;;;;21.66;36.01;100196.25;5257920;33;33586;-90
2023/03/23 11:34:39;;;;;;;7.43;4.00;;;;;;;22.04;35.38;100194.50;5257834;33;33426;-89
2023/03/23 11:37:48;;;;;;;8.38;3.78;;;;;;;21.99;34.84;100214.44;5262039;33;34068;-86
2023/03/23 11:40:52;;;;;;;;;;;;;;;21.27;35.89;100209.97;5261392;33;34240;-86
2023/03/23 11:43:54;;;;;;;5.20;3.67;;;;;;;20.64;36.93;100203.00;5272364;33;33497;-86
2023/03/23 11:47:03;;;;;;;7.43;3.67;;;;;;;20.64;37.38;100198.34;5242482;33;33594;-86
2023/03/23 11:50:19;;;;;;;6.20;3.92;;;;;;;20.21;37.56;100207.13;5262871;33;33466;-85
2023/03/23 11:53:28;;;;;;;5.57;3.72;;;;;;;20.12;37.45;100193.88;5245809;33;33574;-86
2023/03/23 11:56:35;;;;;;;9.95;4.20;;;;;;;20.17;37.66;100190.41;5253794;33;33727;-85
2023/03/23 11:59:38;;;;;;;6.25;3.45;;;;;;;20.69;37.25;100186.66;5272371;33;33905;-86
2023/03/23 12:03:04;;;;;;;3.75;3.00;;;;;;;22.17;34.43;100194.94;5272765;33;34169;-85
2023/03/23 12:06:10;;;;;;;5.18;3.40;;;;;;;24.50;31.17;100172.81;5273123;33;34902;-85
2023/03/23 12:09:41;;;;;;;8.43;3.25;;;;;;;26.91;28.30;100173.38;5272455;33;34737;-85
2023/03/23 12:13:13;;;;;;;3.83;3.30;;;;;;;28.05;25.79;100168.12;5255773;33;33055;-85
2023/03/23 12:16:29;;;;;;;5.12;3.35;;;;;;;29.44;23.53;100156.28;5271995;33;33401;-86
2023/03/23 12:19:58;;;;;;;6.25;3.40;;;;;;;29.60;23.38;100154.00;5252900;33;33495;-86
2023/03/23 12:23:22;;;;;;;6.70;3.08;;;;;;;30.44;22.62;100156.25;5271967;33;34133;-86
2023/03/23 12:26:30;;;;;;;5.62;3.50;;;;;;;29.99;23.15;100136.78;5272281;33;33876;-85
2023/03/23 12:30:20;;;;;;;5.65;3.42;;;;;;;29.19;23.76;100127.12;5272514;33;33866;-86
2023/03/23 12:33:50;;;;;;;3.87;3.20;;;;;;;31.09;22.16;100129.81;5235405;33;32919;-86
2023/03/23 12:37:28;;;;;;;6.43;3.28;;;;;;;31.01;21.36;100129.81;5268690;33;33220;-86
2023/03/23 12:40:59;;;;;;;4.68;2.90;;;;;;;32.56;19.95;100127.53;5251791;33;32018;-86
2023/03/23 12:44:11;;;;;;;4.37;2.60;;;;;;;32.73;19.78;100127.50;5267824;33;33638;-86
2023/03/23 12:47:25;;;;;;;8.23;3.00;;;;;;;33.92;18.89;100121.97;5271720;33;33542;-86
2023/03/23 12:50:36;;;;;;;4.37;2.78;;;;;;;33.52;19.17;100109.31;5270372;33;33528;-86
2023/03/23 12:53:49;;;;;;;6.00;2.45;;;;;;;33.30;19.18;100120.72;5271632;33;33121;-86
2023/03/23 12:57:02;;;;;;;2.90;2.40;;;;;;;34.34;17.97;100113.56;5254698;33;33361;-86
2023/03/23 13:00:20;;;;;;;5.12;2.83;;;;;;;35.79;17.62;100102.03;5271351;33;34849;-86
2023/03/23 13:03:32;;;;;;;3.00;2.25;;;;;;;34.52;17.99;100110.25;5271707;33;34403;-86
2023/03/23 13:06:46;;;;;;;3.28;2.28;;;;;;;34.98;17.64;100101.81;5265905;33;33124;-86
2023/03/23 13:10:19;;;;;;;2.55;2.35;;;;;;;35.09;17.77;100097.41;5254847;33;33611;-89
2023/03/23 13:13:24;;;;;;;5.05;2.42;;;;;;;35.34;17.24;100094.63;5271647;33;34070;-86
2023/03/23 13:16:37;;;;;;;3.80;2.53;;;;;;;33.27;19.17;100102.69;5270399;33;33036;-86
2023/03/23 13:20:35;;;;;;;5.28;2.30;;;;;;;32.14;19.75;100093.84;5271498;33;33194;-86
2023/03/23 13:23:36;;;;;;;;;;;;;;;32.29;20.22;100102.50;5249887;33;33199;-86
2023/03/23 13:26:42;;;;;;;5.20;2.17;;;;;;;33.79;18.88;100098.75;5271031;33;34123;-86
2023/03/23 13:29:46;;;;;;;4.15;2.25;;;;;;;31.00;20.56;100092.00;5251581;33;34069;-86
2023/03/23 13:32:48;;;;;;;2.75;2.20;;;;;;;30.28;21.70;100099.47;5253851;33;33562;-86
2023/03/23 13:35:51;;;;;;;4.00;2.62;;;;;;;32.68;19.52;100095.06;5252426;33;33396;-86
2023/03/23 13:38:53;;;;;;;2.97;2.45;;;;;;;32.42;19.28;100080.34;5252802;33;33288;-86
2023/03/23 13:42:07;;;;;;;2.80;2.30;;;;;;;31.58;20.31;100088.09;5242156;33;34462;-86
2023/03/23 13:45:36;;;;;;;4.57;2.33;;;;;;;31.64;20.28;100086.78;5270902;33;33505;-86
2023/03/23 13:48:43;;;;;;;2.53;2.20;;;;;;;31.79;20.12;100086.28;5266051;33;34128;-86
2023/03/23 13:51:46;;;;;;;3.60;2.50;;;;;;;32.17;19.80;100073.69;5253977;33;33533;-90
2023/03/23 13:54:49;;;;;;;6.80;2.60;;;;;;;32.13;19.81;100072.72;5271119;33;34907;-91
2023/03/23 13:57:57;;;;;;;2.60;2.40;;;;;;;31.49;20.30;100067.78;5270676;33;33842;-87
2023/03/23 14:01:01;;;;;;;3.95;2.25;;;;;;;31.40;20.48;100060.22;5278977;33;34243;-86
2023/03/23 14:04:07;;;;;;;3.22;2.42;;;;;;;30.52;21.33;100063.00;5280081;33;33297;-86
2023/03/23 14:07:11;;;;;;;6.03;2.70;;;;;;;29.22;22.89;100062.75;5269798;33;34191;-85
2023/03/23 14:10:17;;;;;;;3.60;2.50;;;;;;;28.87;23.56;100061.50;5268994;33;33536;-86
2023/03/23 14:13:23;;;;;;;4.68;2.47;;;;;;;29.30;22.58;100064.78;5272968;33;34162;-86
2023/03/23 14:16:49;;;;;;;5.32;2.67;;;;;;;28.69;23.35;100063.22;5270122;33;33348;-86
2023/03/23 14:19:54;;;;;;;3.37;2.83;;;;;;;27.76;24.67;100060.38;5266521;33;33782;-86
2023/03/23 14:22:56;;;;;;;3.20;2.60;;;;;;;27.08;25.79;100058.78;5270794;33;33766;-86
2023/03/23 14:26:08;;;;;;;3.90;2.90;;;;;;;27.32;25.06;100054.09;5265879;33;33514;-87
2023/03/23 14:29:12;;;;;;;5.28;2.67;;;;;;;27.40;25.40;100054.53;5273214;33;33372;-87
2023/03/23 14:32:17;;;;;;;3.22;2.60;;;;;;;27.77;24.96;100053.72;5274667;33;34302;-86
2023/03/23 14:35:30;;;;;;;5.65;2.72;;;;;;;27.20;25.12;100048.16;5272874;33;33555;-87
2023/03/23 14:38:32;;;;;;;3.03;2.70;;;;;;;26.65;25.92;100051.28;5273840;33;33533;-86
2023/03/23 14:41:35;;;;;;;3.78;2.58;;;;;;;26.65;26.13;100045.75;5256386;33;34284;-87
2023/03/23 14:44:43;;;;;;;4.28;2.70;;;;;;;25.78;27.68;100053.94;5273223;33;34478;-85
2023/03/23 14:47:52;;;;;;;5.20;3.20;;;;;;;24.52;28.81;100060.53;5256220;33;34233;-85
2023/03/23 14:51:04;;;;;;;6.18;3.05;;;;;;;23.07;31.55;100051.53;5273099;33;33451;-86
2023/03/23 14:54:11;;;;;;;3.40;2.97;;;;;;;22.48;32.25;100055.31;5273316;33;34180;-86
2023/03/23 14:57:18;;;;;;;4.90;3.12;;;;;;;21.82;33.49;100055.59;5256954;33;34257;-85
2023/03/23 15:00:32;;;;;;;5.10;3.28;;;;;;;21.47;34.44;100051.41;5263074;33;291569;-84
2023/03/23 15:03:38;;;;;;;4.10;2.90;;;;;;;21.40;34.69;100063.66;5271196;33;33584;-85
2023/03/23 15:06:43;;;;;;;4.53;3.22;;;;;;;21.01;35.00;100050.84;5273699;33;33597;-86
2023/03/23 15:09:46;;;;;;;6.00;2.78;;;;;;;21.06;34.89;100059.12;5273608;33;33995;-85
2023/03/23 15:12:50;;;;;;;4.07;2.85;;;;;;;20.87;35.80;100057.78;5256368;33;33040;-85
2023/03/23 15:15:51;;;;;;;4.87;3.00;;;;;;;20.97;35.82;100062.56;5274013;33;33620;-85
2023/03/23 15:19:00;;;;;;;4.82;2.85;;;;;;;20.92;35.85;100052.38;5256275;33;33452;-85
2023/03/23 15:22:32;;;;;;;4.65;2.90;;;;;;;20.97;35.76;100057.06;5269907;33;33478;-86
2023/03/23 15:25:39;;;;;;;6.57;2.72;;;;;;;20.75;36.50;100059.81;5245871;33;33740;-85
2023/03/23 15:28:40;;;;;;;3.10;2.80;;;;;;;20.67;36.28;100058.31;5273615;33;33485;-83
2023/03/23 15:32:03;;;;;;;4.72;2.87;;;;;;;20.42;37.32;100063.38;5273505;33;33395;-84
2023/03/23 15:35:15;;;;;;;5.50;3.25;;;;;;;20.49;37.43;100056.69;5257693;33;34271;-85
2023/03/23 15:38:21;;;;;;;4.75;3.03;;;;;;;20.25;37.75;100056.06;5272360;33;35011;-85
2023/03/23 15:41:27;;;;;;;5.47;2.95;;;;;;;20.27;37.38;100045.69;5273531;33;34207;-85
2023/03/23 15:44:34;;;;;;;6.32;3.72;;;;;;;20.19;37.62;100056.22;5273442;33;33445;-85
2023/03/23 15:47:42;;;;;;;5.57;3.50;;;;;;;19.99;38.08;100054.81;5272825;33;33853;-85
2023/03/23 15:50:47;;;;;;;5.25;3.50;;;;;;;19.84;38.44;100043.63;5273275;33;34290;-85
2023/03/23 15:53:51;;;;;;;8.00;3.17;;;;;;;19.72;38.75;100046.44;5256040;33;33250;-84
2023/03/23 15:56:53;;;;;;;4.95;3.10;;;;;;;19.63;39.17;100056.91;5283991;33;33527;-84
2023/03/23 15:59:54;;;;;;;4.57;3.00;;;;;;;19.48;39.77;100059.34;5256041;33;33792;-85
2023/03/23 16:03:00;;;;;;;6.45;3.12;;;;;;;19.36;39.84;100059.38;5255996;33;34429;-86
2023/03/23 16:06:04;;;;;;;4.93;2.90;;;;;;;19.18;39.90;100060.38;5272219;33;33535;-86
2023/03/23 16:09:17;;;;;;;4.55;3.08;;;;;;;19.12;40.24;100047.72;5268911;33;33695;-89
2023/03/23 16:12:20;;;;;;;6.00;3.80;;;;;;;18.96;40.57;100052.03;5271992;33;33846;-90
2023/03/23 16:15:22;;;;;;;5.22;3.12;;;;;;;18.86;40.94;100067.34;5257226;33;33444;-86
2023/03/23 16:18:25;;;;;;;5.25;3.12;;;;;;;18.70;41.40;100058.81;5247060;33;34081;-86
2023/03/23 16:21:28;;;;;;;4.10;2.97;;;;;;;18.64;41.49;100054.31;5247448;33;33449;-86
2023/03/23 16:24:31;;;;;;;6.60;3.53;;;;;;;18.60;41.74;100061.31;5266384;33;34244;-86
2023/03/23 16:27:34;;;;;;;4.25;3.05;;;;;;;18.48;41.98;100058.59;5242416;33;33179;-86
2023/03/23 16:30:37;;;;;;;2.50;2.30;;;;;;;18.39;42.11;100057.28;5254122;33;33479;-86
2023/03/23 16:33:41;;;;;;;6.10;2.65;;;;;;;18.28;42.25;100061.69;5254242;33;33273;-86
2023/03/23 16:36:44;;;;;;;3.40;2.97;;;;;;;18.10;43.02;100072.66;5255054;33;34239;-86
2023/03/23 16:39:46;;;;;;;6.85;2.90;;;;;;;18.04;43.06;100071.69;5254897;33;34176;-86
2023/03/23 16:42:50;;;;;;;4.15;2.70;;;;;;;17.94;43.52;100079.62;5262659;33;33129;-86
2023/03/23 16:45:55;;;;;;;3.00;2.70;;;;;;;18.06;44.34;100074.22;5283747;33;33752;-86
2023/03/23 16:48:58;;;;;;;5.90;2.55;;;;;;;17.97;43.61;100073.72;5271883;33;35103;-86
2023/03/23 16:52:01;;;;;;;3.10;2.60;;;;;;;17.81;43.92;100074.37;5256340;33;33473;-85
2023/03/23 16:55:04;;;;;;;3.15;2.22;;;;;;;17.76;44.08;100077.78;5256497;33;33422;-86
2023/03/23 16:58:07;;;;;;;4.47;2.60;;;;;;;17.55;44.93;100083.72;5272114;33;33785;-86
